CYED

Edmonton (CFB Namao) Heliport

Edmonton, Alberta, Canada
METAR CYED 201200Z AUTO 00000KT 1/8SM BKN001 OVC007 OVC033 M09/M12 A2968 RMK ICG PAST HR SLP085
Observed Flight Rules
Jan-20 @ 12:00 UTC (an hour ago) Instrument Flight Rules
Wind Visibility Clouds
Calm 1/13 miles
  • Broken at 100' AGL
  • Overcast at 700' AGL
  • Overcast at 3,300' AGL
Temperatures Readings
Current -9°C / 16°F
Dewpoint -12°C / 10°F
Humidity 79%
Altimeter 29.68" Hg
Pressure 1008.5 hPa
Elevation 688
METAR CYED 201200Z AUTO 00000KT 1/8SM BKN001 OVC007 OVC033 M09/M12 A2968 RMK ICG PAST HR SLP085
Observed Flight Rules
Jan-20 @ 12:00 UTC
(an hour ago)
LIFR
Wind Visibility
Calm 1/13 miles
Clouds
  • Broken at 100' AGL
  • Overcast at 700' AGL
  • Overcast at 3,300' AGL
Temperature Dewpoint
-9°C / 16°F -12°C / 10°F
Humidity Altimeter Pressure
79% 29.68" Hg 1008.5 hPa